sensor_id;sensor_type;location;lat;lon;timestamp;temperature;humidity
66608;DHT22;53462;39.616;8.824;2023-04-29T00:02:01;17.40;67.40
66608;DHT22;53462;39.616;8.824;2023-04-29T00:04:27;17.40;67.70
66608;DHT22;53462;39.616;8.824;2023-04-29T00:06:53;17.30;67.90
66608;DHT22;53462;39.616;8.824;2023-04-29T00:09:20;17.30;68.20
66608;DHT22;53462;39.616;8.824;2023-04-29T00:11:46;17.30;68.30
66608;DHT22;53462;39.616;8.824;2023-04-29T00:14:12;17.30;68.30
66608;DHT22;53462;39.616;8.824;2023-04-29T00:16:38;17.30;68.50
66608;DHT22;53462;39.616;8.824;2023-04-29T00:19:04;17.30;68.40
66608;DHT22;53462;39.616;8.824;2023-04-29T00:21:30;17.40;68.40
66608;DHT22;53462;39.616;8.824;2023-04-29T00:23:58;17.30;68.40
66608;DHT22;53462;39.616;8.824;2023-04-29T00:26:24;17.30;68.50
66608;DHT22;53462;39.616;8.824;2023-04-29T00:28:50;17.30;68.70
66608;DHT22;53462;39.616;8.824;2023-04-29T00:31:16;17.30;69.20
66608;DHT22;53462;39.616;8.824;2023-04-29T00:33:42;17.30;69.60
66608;DHT22;53462;39.616;8.824;2023-04-29T00:36:09;17.30;70.20
66608;DHT22;53462;39.616;8.824;2023-04-29T00:38:35;17.30;70.60
66608;DHT22;53462;39.616;8.824;2023-04-29T00:41:01;17.20;70.90
66608;DHT22;53462;39.616;8.824;2023-04-29T00:43:27;17.30;71.10
66608;DHT22;53462;39.616;8.824;2023-04-29T00:45:53;17.30;71.20
66608;DHT22;53462;39.616;8.824;2023-04-29T00:48:19;17.30;71.40
66608;DHT22;53462;39.616;8.824;2023-04-29T00:50:45;17.30;71.70
66608;DHT22;53462;39.616;8.824;2023-04-29T00:53:11;17.30;72.20
66608;DHT22;53462;39.616;8.824;2023-04-29T00:55:38;17.30;72.50
66608;DHT22;53462;39.616;8.824;2023-04-29T00:58:05;17.20;73.00
66608;DHT22;53462;39.616;8.824;2023-04-29T01:00:31;17.20;73.30
66608;DHT22;53462;39.616;8.824;2023-04-29T01:02:58;17.20;73.70
66608;DHT22;53462;39.616;8.824;2023-04-29T01:05:24;17.20;74.00
66608;DHT22;53462;39.616;8.824;2023-04-29T01:13:11;17.10;75.00
66608;DHT22;53462;39.616;8.824;2023-04-29T01:16:00;17.10;75.20
66608;DHT22;53462;39.616;8.824;2023-04-29T01:18:43;17.10;75.40
66608;DHT22;53462;39.616;8.824;2023-04-29T01:21:12;17.20;75.50
66608;DHT22;53462;39.616;8.824;2023-04-29T01:23:38;17.10;75.50
66608;DHT22;53462;39.616;8.824;2023-04-29T01:26:05;17.10;75.60
66608;DHT22;53462;39.616;8.824;2023-04-29T01:29:39;17.20;75.50
66608;DHT22;53462;39.616;8.824;2023-04-29T01:32:01;17.20;75.40
66608;DHT22;53462;39.616;8.824;2023-04-29T01:40:10;17.10;74.80
66608;DHT22;53462;39.616;8.824;2023-04-29T01:42:45;17.10;74.10
66608;DHT22;53462;39.616;8.824;2023-04-29T01:45:15;17.10;73.70
66608;DHT22;53462;39.616;8.824;2023-04-29T01:47:43;17.10;73.20
66608;DHT22;53462;39.616;8.824;2023-04-29T01:50:11;17.00;72.60
66608;DHT22;53462;39.616;8.824;2023-04-29T01:52:37;17.00;72.40
66608;DHT22;53462;39.616;8.824;2023-04-29T01:55:04;16.90;72.20
66608;DHT22;53462;39.616;8.824;2023-04-29T01:57:39;16.90;71.80
66608;DHT22;53462;39.616;8.824;2023-04-29T02:00:25;16.90;71.40
66608;DHT22;53462;39.616;8.824;2023-04-29T02:02:51;16.80;71.60
66608;DHT22;53462;39.616;8.824;2023-04-29T02:05:35;16.80;71.50
66608;DHT22;53462;39.616;8.824;2023-04-29T02:08:01;16.80;71.10
66608;DHT22;53462;39.616;8.824;2023-04-29T02:10:29;16.90;70.60
66608;DHT22;53462;39.616;8.824;2023-04-29T02:13:18;16.90;70.50
66608;DHT22;53462;39.616;8.824;2023-04-29T02:15:44;16.90;70.40
66608;DHT22;53462;39.616;8.824;2023-04-29T02:18:10;16.90;70.40
66608;DHT22;53462;39.616;8.824;2023-04-29T02:20:36;16.80;70.50
66608;DHT22;53462;39.616;8.824;2023-04-29T02:23:04;16.90;70.30
66608;DHT22;53462;39.616;8.824;2023-04-29T02:25:30;16.80;70.50
66608;DHT22;53462;39.616;8.824;2023-04-29T02:27:58;16.80;70.50
66608;DHT22;53462;39.616;8.824;2023-04-29T02:30:23;16.80;70.60
66608;DHT22;53462;39.616;8.824;2023-04-29T02:32:49;16.90;70.50
66608;DHT22;53462;39.616;8.824;2023-04-29T02:35:15;16.90;70.40
66608;DHT22;53462;39.616;8.824;2023-04-29T02:37:41;17.00;70.00
66608;DHT22;53462;39.616;8.824;2023-04-29T02:40:08;17.10;69.70
66608;DHT22;53462;39.616;8.824;2023-04-29T02:42:34;17.10;69.60
66608;DHT22;53462;39.616;8.824;2023-04-29T02:45:00;17.10;69.30
66608;DHT22;53462;39.616;8.824;2023-04-29T02:47:26;17.10;68.90
66608;DHT22;53462;39.616;8.824;2023-04-29T02:49:52;17.10;68.60
66608;DHT22;53462;39.616;8.824;2023-04-29T02:52:18;17.20;68.30
66608;DHT22;53462;39.616;8.824;2023-04-29T02:54:44;17.20;68.20
66608;DHT22;53462;39.616;8.824;2023-04-29T02:57:10;17.20;68.20
66608;DHT22;53462;39.616;8.824;2023-04-29T02:59:36;17.30;68.40
66608;DHT22;53462;39.616;8.824;2023-04-29T03:02:02;17.30;68.20
66608;DHT22;53462;39.616;8.824;2023-04-29T03:04:28;17.30;67.80
66608;DHT22;53462;39.616;8.824;2023-04-29T03:06:55;17.30;67.50
66608;DHT22;53462;39.616;8.824;2023-04-29T03:09:22;17.30;67.40
66608;DHT22;53462;39.616;8.824;2023-04-29T03:11:48;17.30;67.40
66608;DHT22;53462;39.616;8.824;2023-04-29T03:14:14;17.20;67.30
66608;DHT22;53462;39.616;8.824;2023-04-29T03:16:40;17.20;67.20
66608;DHT22;53462;39.616;8.824;2023-04-29T03:19:07;17.20;67.10
66608;DHT22;53462;39.616;8.824;2023-04-29T03:21:33;17.20;67.00
66608;DHT22;53462;39.616;8.824;2023-04-29T03:23:59;17.30;66.90
66608;DHT22;53462;39.616;8.824;2023-04-29T03:26:31;17.30;66.60
66608;DHT22;53462;39.616;8.824;2023-04-29T03:28:57;17.30;66.50
66608;DHT22;53462;39.616;8.824;2023-04-29T03:31:25;17.30;66.50
66608;DHT22;53462;39.616;8.824;2023-04-29T03:33:51;17.30;66.70
66608;DHT22;53462;39.616;8.824;2023-04-29T03:36:19;17.20;68.30
66608;DHT22;53462;39.616;8.824;2023-04-29T03:39:11;16.80;70.30
66608;DHT22;53462;39.616;8.824;2023-04-29T03:41:37;16.50;71.90
66608;DHT22;53462;39.616;8.824;2023-04-29T03:44:04;16.20;73.60
66608;DHT22;53462;39.616;8.824;2023-04-29T03:46:30;16.10;74.80
66608;DHT22;53462;39.616;8.824;2023-04-29T03:48:56;16.00;75.40
66608;DHT22;53462;39.616;8.824;2023-04-29T03:51:25;16.00;75.80
66608;DHT22;53462;39.616;8.824;2023-04-29T03:53:58;15.80;76.40
66608;DHT22;53462;39.616;8.824;2023-04-29T03:56:25;15.70;76.90
66608;DHT22;53462;39.616;8.824;2023-04-29T03:58:51;15.70;77.40
66608;DHT22;53462;39.616;8.824;2023-04-29T04:01:19;15.70;77.50
66608;DHT22;53462;39.616;8.824;2023-04-29T04:03:45;15.80;77.00
66608;DHT22;53462;39.616;8.824;2023-04-29T04:06:12;15.80;77.00
66608;DHT22;53462;39.616;8.824;2023-04-29T04:08:38;15.70;77.40
66608;DHT22;53462;39.616;8.824;2023-04-29T04:11:10;15.70;77.30
66608;DHT22;53462;39.616;8.824;2023-04-29T04:14:01;15.70;77.50
66608;DHT22;53462;39.616;8.824;2023-04-29T04:16:27;15.50;78.00
66608;DHT22;53462;39.616;8.824;2023-04-29T04:18:53;15.50;78.70
66608;DHT22;53462;39.616;8.824;2023-04-29T04:21:19;15.40;79.30
66608;DHT22;53462;39.616;8.824;2023-04-29T04:23:53;15.40;79.40
66608;DHT22;53462;39.616;8.824;2023-04-29T04:26:21;15.30;79.50
66608;DHT22;53462;39.616;8.824;2023-04-29T04:28:56;15.30;79.60
66608;DHT22;53462;39.616;8.824;2023-04-29T04:31:44;15.20;79.90
66608;DHT22;53462;39.616;8.824;2023-04-29T04:34:11;15.20;80.00
66608;DHT22;53462;39.616;8.824;2023-04-29T04:36:37;15.10;80.20
66608;DHT22;53462;39.616;8.824;2023-04-29T04:39:03;15.10;80.60
66608;DHT22;53462;39.616;8.824;2023-04-29T04:41:30;15.10;80.90
66608;DHT22;53462;39.616;8.824;2023-04-29T04:43:56;15.10;81.00
66608;DHT22;53462;39.616;8.824;2023-04-29T04:46:32;15.10;81.10
66608;DHT22;53462;39.616;8.824;2023-04-29T04:49:24;15.10;81.40
66608;DHT22;53462;39.616;8.824;2023-04-29T04:51:52;15.30;80.70
66608;DHT22;53462;39.616;8.824;2023-04-29T04:54:19;15.30;79.70
66608;DHT22;53462;39.616;8.824;2023-04-29T04:56:48;15.40;79.20
66608;DHT22;53462;39.616;8.824;2023-04-29T04:59:16;15.40;78.30
66608;DHT22;53462;39.616;8.824;2023-04-29T05:01:42;15.60;78.10
66608;DHT22;53462;39.616;8.824;2023-04-29T05:04:09;15.70;77.40
66608;DHT22;53462;39.616;8.824;2023-04-29T05:06:35;15.80;76.30
66608;DHT22;53462;39.616;8.824;2023-04-29T05:09:01;15.90;76.60
66608;DHT22;53462;39.616;8.824;2023-04-29T05:11:27;15.90;77.00
66608;DHT22;53462;39.616;8.824;2023-04-29T05:14:06;15.90;77.50
66608;DHT22;53462;39.616;8.824;2023-04-29T05:16:32;15.90;77.10
66608;DHT22;53462;39.616;8.824;2023-04-29T05:18:58;15.90;77.60
66608;DHT22;53462;39.616;8.824;2023-04-29T05:21:29;15.80;78.30
66608;DHT22;53462;39.616;8.824;2023-04-29T05:23:57;15.80;78.90
66608;DHT22;53462;39.616;8.824;2023-04-29T05:26:23;15.80;79.40
66608;DHT22;53462;39.616;8.824;2023-04-29T05:28:50;15.90;79.60
66608;DHT22;53462;39.616;8.824;2023-04-29T05:31:17;16.00;79.10
66608;DHT22;53462;39.616;8.824;2023-04-29T05:33:43;16.30;77.60
66608;DHT22;53462;39.616;8.824;2023-04-29T05:36:10;16.40;76.40
66608;DHT22;53462;39.616;8.824;2023-04-29T05:38:36;16.60;75.40
66608;DHT22;53462;39.616;8.824;2023-04-29T05:41:04;16.80;73.30
66608;DHT22;53462;39.616;8.824;2023-04-29T05:43:33;16.90;72.30
66608;DHT22;53462;39.616;8.824;2023-04-29T05:45:59;17.10;73.70
66608;DHT22;53462;39.616;8.824;2023-04-29T05:48:26;17.30;72.10
66608;DHT22;53462;39.616;8.824;2023-04-29T05:50:53;17.40;73.00
66608;DHT22;53462;39.616;8.824;2023-04-29T05:53:19;17.40;71.60
66608;DHT22;53462;39.616;8.824;2023-04-29T05:55:45;17.40;72.20
66608;DHT22;53462;39.616;8.824;2023-04-29T05:58:12;17.40;73.60
66608;DHT22;53462;39.616;8.824;2023-04-29T06:00:39;17.50;74.00
66608;DHT22;53462;39.616;8.824;2023-04-29T06:03:12;17.70;73.10
66608;DHT22;53462;39.616;8.824;2023-04-29T06:05:38;17.90;70.50
66608;DHT22;53462;39.616;8.824;2023-04-29T06:08:23;18.30;68.90
66608;DHT22;53462;39.616;8.824;2023-04-29T06:10:52;18.60;68.10
66608;DHT22;53462;39.616;8.824;2023-04-29T06:13:18;18.80;67.50
66608;DHT22;53462;39.616;8.824;2023-04-29T06:15:44;19.70;66.80
66608;DHT22;53462;39.616;8.824;2023-04-29T06:18:10;21.10;60.30
66608;DHT22;53462;39.616;8.824;2023-04-29T06:20:36;21.90;57.70
66608;DHT22;53462;39.616;8.824;2023-04-29T06:23:02;22.20;55.10
66608;DHT22;53462;39.616;8.824;2023-04-29T06:25:28;22.40;53.40
66608;DHT22;53462;39.616;8.824;2023-04-29T06:27:56;21.40;54.10
66608;DHT22;53462;39.616;8.824;2023-04-29T06:30:25;21.00;60.10
66608;DHT22;53462;39.616;8.824;2023-04-29T06:32:51;21.40;58.90
66608;DHT22;53462;39.616;8.824;2023-04-29T06:35:18;20.90;57.70
66608;DHT22;53462;39.616;8.824;2023-04-29T06:38:03;20.80;60.20
66608;DHT22;53462;39.616;8.824;2023-04-29T06:40:47;21.10;60.30
66608;DHT22;53462;39.616;8.824;2023-04-29T06:43:33;21.90;56.50
66608;DHT22;53462;39.616;8.824;2023-04-29T06:46:18;22.80;54.50
66608;DHT22;53462;39.616;8.824;2023-04-29T06:48:53;22.30;54.70
66608;DHT22;53462;39.616;8.824;2023-04-29T06:51:19;21.30;56.40
66608;DHT22;53462;39.616;8.824;2023-04-29T06:53:45;21.20;58.20
66608;DHT22;53462;39.616;8.824;2023-04-29T06:56:12;20.90;59.50
66608;DHT22;53462;39.616;8.824;2023-04-29T06:58:38;20.80;60.90
66608;DHT22;53462;39.616;8.824;2023-04-29T07:01:06;20.80;60.70
66608;DHT22;53462;39.616;8.824;2023-04-29T07:03:33;21.00;58.40
66608;DHT22;53462;39.616;8.824;2023-04-29T07:05:59;21.00;60.30
66608;DHT22;53462;39.616;8.824;2023-04-29T07:08:25;21.20;58.00
66608;DHT22;53462;39.616;8.824;2023-04-29T07:10:56;21.40;57.70
66608;DHT22;53462;39.616;8.824;2023-04-29T07:13:23;21.40;57.80
66608;DHT22;53462;39.616;8.824;2023-04-29T07:15:50;21.50;56.00
66608;DHT22;53462;39.616;8.824;2023-04-29T07:18:16;21.50;57.20
66608;DHT22;53462;39.616;8.824;2023-04-29T07:20:42;21.50;60.40
66608;DHT22;53462;39.616;8.824;2023-04-29T07:23:09;21.30;62.80
66608;DHT22;53462;39.616;8.824;2023-04-29T07:25:35;21.10;64.80
66608;DHT22;53462;39.616;8.824;2023-04-29T07:28:03;20.90;65.40
66608;DHT22;53462;39.616;8.824;2023-04-29T07:30:29;21.00;66.20
66608;DHT22;53462;39.616;8.824;2023-04-29T07:32:55;21.20;67.90
66608;DHT22;53462;39.616;8.824;2023-04-29T07:35:21;21.40;66.10
66608;DHT22;53462;39.616;8.824;2023-04-29T07:37:47;21.70;64.60
66608;DHT22;53462;39.616;8.824;2023-04-29T07:40:13;22.00;61.30
66608;DHT22;53462;39.616;8.824;2023-04-29T07:42:39;22.40;61.10
66608;DHT22;53462;39.616;8.824;2023-04-29T07:45:06;23.10;59.30
66608;DHT22;53462;39.616;8.824;2023-04-29T07:47:32;23.00;57.80
66608;DHT22;53462;39.616;8.824;2023-04-29T07:49:59;22.70;57.10
66608;DHT22;53462;39.616;8.824;2023-04-29T07:52:25;22.10;59.20
66608;DHT22;53462;39.616;8.824;2023-04-29T07:54:51;22.00;59.60
66608;DHT22;53462;39.616;8.824;2023-04-29T07:57:20;22.30;60.60
66608;DHT22;53462;39.616;8.824;2023-04-29T07:59:48;22.40;59.20
66608;DHT22;53462;39.616;8.824;2023-04-29T08:02:15;22.30;60.70
66608;DHT22;53462;39.616;8.824;2023-04-29T08:04:44;22.30;60.60
66608;DHT22;53462;39.616;8.824;2023-04-29T08:07:12;22.60;60.10
66608;DHT22;53462;39.616;8.824;2023-04-29T08:09:38;22.70;59.60
66608;DHT22;53462;39.616;8.824;2023-04-29T08:12:04;22.40;60.00
66608;DHT22;53462;39.616;8.824;2023-04-29T08:14:30;22.30;60.30
66608;DHT22;53462;39.616;8.824;2023-04-29T08:16:57;22.10;61.50
66608;DHT22;53462;39.616;8.824;2023-04-29T08:19:23;22.10;60.90
66608;DHT22;53462;39.616;8.824;2023-04-29T08:21:49;22.40;58.70
66608;DHT22;53462;39.616;8.824;2023-04-29T08:24:16;22.80;58.40
66608;DHT22;53462;39.616;8.824;2023-04-29T08:26:42;22.60;57.90
66608;DHT22;53462;39.616;8.824;2023-04-29T08:29:08;22.50;58.00
66608;DHT22;53462;39.616;8.824;2023-04-29T08:31:34;23.00;56.30
66608;DHT22;53462;39.616;8.824;2023-04-29T08:34:00;23.20;55.40
66608;DHT22;53462;39.616;8.824;2023-04-29T08:36:26;23.00;56.20
66608;DHT22;53462;39.616;8.824;2023-04-29T08:38:54;22.80;55.60
66608;DHT22;53462;39.616;8.824;2023-04-29T08:41:20;22.70;56.00
66608;DHT22;53462;39.616;8.824;2023-04-29T08:43:46;22.60;55.50
66608;DHT22;53462;39.616;8.824;2023-04-29T08:46:12;22.80;55.60
66608;DHT22;53462;39.616;8.824;2023-04-29T08:48:40;22.80;54.80
66608;DHT22;53462;39.616;8.824;2023-04-29T08:51:06;22.90;55.20
66608;DHT22;53462;39.616;8.824;2023-04-29T08:53:33;23.10;55.10
66608;DHT22;53462;39.616;8.824;2023-04-29T09:01:31;23.50;53.80
66608;DHT22;53462;39.616;8.824;2023-04-29T09:04:56;22.70;54.70
66608;DHT22;53462;39.616;8.824;2023-04-29T09:06:56;22.50;55.40
66608;DHT22;53462;39.616;8.824;2023-04-29T09:09:24;22.60;55.90
66608;DHT22;53462;39.616;8.824;2023-04-29T09:11:50;22.60;55.60
66608;DHT22;53462;39.616;8.824;2023-04-29T09:14:17;22.50;55.40
66608;DHT22;53462;39.616;8.824;2023-04-29T09:16:47;22.60;56.00
66608;DHT22;53462;39.616;8.824;2023-04-29T09:19:29;23.20;53.50
66608;DHT22;53462;39.616;8.824;2023-04-29T09:21:56;23.70;53.40
66608;DHT22;53462;39.616;8.824;2023-04-29T09:24:29;24.40;52.10
66608;DHT22;53462;39.616;8.824;2023-04-29T09:26:57;25.40;48.90
66608;DHT22;53462;39.616;8.824;2023-04-29T09:29:23;25.80;47.90
66608;DHT22;53462;39.616;8.824;2023-04-29T09:31:50;26.40;46.70
66608;DHT22;53462;39.616;8.824;2023-04-29T09:34:32;26.00;46.30
66608;DHT22;53462;39.616;8.824;2023-04-29T09:37:00;25.40;47.30
66608;DHT22;53462;39.616;8.824;2023-04-29T09:39:26;25.20;47.20
66608;DHT22;53462;39.616;8.824;2023-04-29T09:44:23;26.60;46.20
66608;DHT22;53462;39.616;8.824;2023-04-29T09:47:03;26.80;44.30
66608;DHT22;53462;39.616;8.824;2023-04-29T09:49:38;26.30;44.60
66608;DHT22;53462;39.616;8.824;2023-04-29T09:52:14;26.30;45.00
66608;DHT22;53462;39.616;8.824;2023-04-29T09:54:42;26.20;45.80
66608;DHT22;53462;39.616;8.824;2023-04-29T09:57:10;26.20;46.10
66608;DHT22;53462;39.616;8.824;2023-04-29T09:59:38;25.90;46.00
66608;DHT22;53462;39.616;8.824;2023-04-29T10:02:15;25.40;47.10
66608;DHT22;53462;39.616;8.824;2023-04-29T10:04:53;25.50;48.70
66608;DHT22;53462;39.616;8.824;2023-04-29T10:07:22;26.20;46.60
66608;DHT22;53462;39.616;8.824;2023-04-29T10:09:48;26.00;46.90
66608;DHT22;53462;39.616;8.824;2023-04-29T10:12:20;25.80;48.20
66608;DHT22;53462;39.616;8.824;2023-04-29T10:15:02;25.70;47.90
66608;DHT22;53462;39.616;8.824;2023-04-29T10:17:45;25.70;48.70
66608;DHT22;53462;39.616;8.824;2023-04-29T10:20:21;25.60;48.40
66608;DHT22;53462;39.616;8.824;2023-04-29T10:22:49;25.70;49.10
66608;DHT22;53462;39.616;8.824;2023-04-29T10:25:20;25.90;48.80
66608;DHT22;53462;39.616;8.824;2023-04-29T10:27:48;26.20;47.80
66608;DHT22;53462;39.616;8.824;2023-04-29T10:30:16;27.10;46.70
66608;DHT22;53462;39.616;8.824;2023-04-29T10:32:43;26.80;46.60
66608;DHT22;53462;39.616;8.824;2023-04-29T10:35:11;27.40;46.10
66608;DHT22;53462;39.616;8.824;2023-04-29T10:37:38;27.80;44.90
66608;DHT22;53462;39.616;8.824;2023-04-29T10:40:28;27.20;44.90
66608;DHT22;53462;39.616;8.824;2023-04-29T10:42:56;27.70;44.30
66608;DHT22;53462;39.616;8.824;2023-04-29T10:45:24;28.00;43.50
66608;DHT22;53462;39.616;8.824;2023-04-29T10:53:15;28.80;42.80
66608;DHT22;53462;39.616;8.824;2023-04-29T10:55:42;28.40;44.50
66608;DHT22;53462;39.616;8.824;2023-04-29T10:58:32;28.40;44.80
66608;DHT22;53462;39.616;8.824;2023-04-29T11:00:59;28.70;44.40
66608;DHT22;53462;39.616;8.824;2023-04-29T11:03:53;28.60;44.60
66608;DHT22;53462;39.616;8.824;2023-04-29T11:06:22;28.20;45.10
66608;DHT22;53462;39.616;8.824;2023-04-29T11:09:00;27.60;45.70
66608;DHT22;53462;39.616;8.824;2023-04-29T11:11:46;27.10;45.40
66608;DHT22;53462;39.616;8.824;2023-04-29T11:14:14;26.90;47.00
66608;DHT22;53462;39.616;8.824;2023-04-29T11:16:50;26.70;47.50
66608;DHT22;53462;39.616;8.824;2023-04-29T11:19:16;26.90;48.40
66608;DHT22;53462;39.616;8.824;2023-04-29T11:21:44;27.70;46.80
66608;DHT22;53462;39.616;8.824;2023-04-29T11:24:12;28.60;45.10
66608;DHT22;53462;39.616;8.824;2023-04-29T11:26:40;29.10;42.90
66608;DHT22;53462;39.616;8.824;2023-04-29T11:29:07;28.80;42.90
66608;DHT22;53462;39.616;8.824;2023-04-29T11:31:36;28.70;43.80
66608;DHT22;53462;39.616;8.824;2023-04-29T11:34:04;28.80;43.30
66608;DHT22;53462;39.616;8.824;2023-04-29T11:36:32;28.80;42.60
66608;DHT22;53462;39.616;8.824;2023-04-29T11:39:00;28.90;43.60
66608;DHT22;53462;39.616;8.824;2023-04-29T11:41:27;28.90;42.80
66608;DHT22;53462;39.616;8.824;2023-04-29T11:43:59;29.20;43.70
66608;DHT22;53462;39.616;8.824;2023-04-29T11:46:28;29.50;42.80
66608;DHT22;53462;39.616;8.824;2023-04-29T11:48:56;29.60;42.20
66608;DHT22;53462;39.616;8.824;2023-04-29T11:51:22;29.60;43.20
66608;DHT22;53462;39.616;8.824;2023-04-29T11:53:48;29.80;42.50
66608;DHT22;53462;39.616;8.824;2023-04-29T11:56:16;29.90;42.00
66608;DHT22;53462;39.616;8.824;2023-04-29T11:58:42;29.90;42.70
66608;DHT22;53462;39.616;8.824;2023-04-29T12:01:09;29.90;41.50
66608;DHT22;53462;39.616;8.824;2023-04-29T12:03:35;30.00;42.30
66608;DHT22;53462;39.616;8.824;2023-04-29T12:06:02;30.20;40.80
66608;DHT22;53462;39.616;8.824;2023-04-29T12:08:29;30.50;40.80
66608;DHT22;53462;39.616;8.824;2023-04-29T12:10:57;30.30;41.80
66608;DHT22;53462;39.616;8.824;2023-04-29T12:13:26;30.20;40.90
66608;DHT22;53462;39.616;8.824;2023-04-29T12:15:52;30.10;40.90
66608;DHT22;53462;39.616;8.824;2023-04-29T12:18:19;30.20;41.00
66608;DHT22;53462;39.616;8.824;2023-04-29T12:20:47;30.20;40.30
66608;DHT22;53462;39.616;8.824;2023-04-29T12:23:18;30.80;39.80
66608;DHT22;53462;39.616;8.824;2023-04-29T12:25:51;31.00;39.10
66608;DHT22;53462;39.616;8.824;2023-04-29T12:28:18;30.80;39.60
66608;DHT22;53462;39.616;8.824;2023-04-29T12:30:49;30.60;40.20
66608;DHT22;53462;39.616;8.824;2023-04-29T12:33:21;31.20;40.50
66608;DHT22;53462;39.616;8.824;2023-04-29T12:35:51;31.20;38.50
66608;DHT22;53462;39.616;8.824;2023-04-29T12:38:23;31.30;38.80
66608;DHT22;53462;39.616;8.824;2023-04-29T12:40:51;30.90;39.50
66608;DHT22;53462;39.616;8.824;2023-04-29T12:43:17;30.70;40.00
66608;DHT22;53462;39.616;8.824;2023-04-29T12:45:43;30.80;39.00
66608;DHT22;53462;39.616;8.824;2023-04-29T12:48:10;30.50;39.50
66608;DHT22;53462;39.616;8.824;2023-04-29T12:50:38;30.90;39.10
66608;DHT22;53462;39.616;8.824;2023-04-29T12:53:05;30.60;39.20
66608;DHT22;53462;39.616;8.824;2023-04-29T12:55:33;30.60;38.50
66608;DHT22;53462;39.616;8.824;2023-04-29T12:58:03;30.10;38.40
66608;DHT22;53462;39.616;8.824;2023-04-29T13:00:29;30.00;38.30
66608;DHT22;53462;39.616;8.824;2023-04-29T13:02:55;29.90;38.00
66608;DHT22;53462;39.616;8.824;2023-04-29T13:05:21;30.10;38.30
66608;DHT22;53462;39.616;8.824;2023-04-29T13:07:48;30.60;36.60
66608;DHT22;53462;39.616;8.824;2023-04-29T13:10:14;30.80;36.70
66608;DHT22;53462;39.616;8.824;2023-04-29T13:12:41;31.10;36.40
66608;DHT22;53462;39.616;8.824;2023-04-29T13:15:07;31.20;36.00
66608;DHT22;53462;39.616;8.824;2023-04-29T13:17:36;31.10;36.20
66608;DHT22;53462;39.616;8.824;2023-04-29T13:20:06;31.30;35.60
66608;DHT22;53462;39.616;8.824;2023-04-29T13:22:33;31.40;35.30
66608;DHT22;53462;39.616;8.824;2023-04-29T13:24:59;31.40;37.40
66608;DHT22;53462;39.616;8.824;2023-04-29T13:27:25;31.20;38.20
66608;DHT22;53462;39.616;8.824;2023-04-29T13:29:51;31.30;37.10
66608;DHT22;53462;39.616;8.824;2023-04-29T13:32:17;31.40;37.00
66608;DHT22;53462;39.616;8.824;2023-04-29T13:34:43;31.50;36.60
66608;DHT22;53462;39.616;8.824;2023-04-29T13:37:10;31.20;37.50
66608;DHT22;53462;39.616;8.824;2023-04-29T13:39:36;31.30;37.50
66608;DHT22;53462;39.616;8.824;2023-04-29T13:42:02;31.50;37.50
66608;DHT22;53462;39.616;8.824;2023-04-29T13:44:28;31.50;37.50
66608;DHT22;53462;39.616;8.824;2023-04-29T13:46:55;31.50;36.50
66608;DHT22;53462;39.616;8.824;2023-04-29T13:49:21;31.60;38.70
66608;DHT22;53462;39.616;8.824;2023-04-29T13:51:47;31.30;39.00
66608;DHT22;53462;39.616;8.824;2023-04-29T13:54:13;31.60;39.50
66608;DHT22;53462;39.616;8.824;2023-04-29T13:56:39;31.40;39.60
66608;DHT22;53462;39.616;8.824;2023-04-29T13:59:05;31.50;39.20
66608;DHT22;53462;39.616;8.824;2023-04-29T14:01:30;31.10;39.60
66608;DHT22;53462;39.616;8.824;2023-04-29T14:03:56;30.90;40.40
66608;DHT22;53462;39.616;8.824;2023-04-29T14:06:22;30.90;40.20
66608;DHT22;53462;39.616;8.824;2023-04-29T14:08:48;30.70;40.80
66608;DHT22;53462;39.616;8.824;2023-04-29T14:11:14;30.20;40.80
66608;DHT22;53462;39.616;8.824;2023-04-29T14:13:41;30.20;41.00
66608;DHT22;53462;39.616;8.824;2023-04-29T14:16:07;30.20;40.90
66608;DHT22;53462;39.616;8.824;2023-04-29T14:18:33;30.10;42.00
66608;DHT22;53462;39.616;8.824;2023-04-29T14:21:00;29.90;41.80
66608;DHT22;53462;39.616;8.824;2023-04-29T14:23:26;29.90;42.30
66608;DHT22;53462;39.616;8.824;2023-04-29T14:25:51;29.80;42.70
66608;DHT22;53462;39.616;8.824;2023-04-29T14:28:18;29.60;42.70
66608;DHT22;53462;39.616;8.824;2023-04-29T14:30:44;29.60;42.70
66608;DHT22;53462;39.616;8.824;2023-04-29T14:33:10;29.50;42.80
66608;DHT22;53462;39.616;8.824;2023-04-29T14:35:36;29.40;43.70
66608;DHT22;53462;39.616;8.824;2023-04-29T14:38:02;29.60;42.60
66608;DHT22;53462;39.616;8.824;2023-04-29T14:40:28;29.70;43.30
66608;DHT22;53462;39.616;8.824;2023-04-29T14:42:54;29.90;42.90
66608;DHT22;53462;39.616;8.824;2023-04-29T14:45:19;29.70;43.30
66608;DHT22;53462;39.616;8.824;2023-04-29T14:47:45;29.60;43.30
66608;DHT22;53462;39.616;8.824;2023-04-29T14:50:11;29.40;44.00
66608;DHT22;53462;39.616;8.824;2023-04-29T14:52:37;29.50;44.00
66608;DHT22;53462;39.616;8.824;2023-04-29T14:55:03;29.50;43.10
66608;DHT22;53462;39.616;8.824;2023-04-29T14:57:29;29.10;43.10
66608;DHT22;53462;39.616;8.824;2023-04-29T14:59:56;29.20;43.10
66608;DHT22;53462;39.616;8.824;2023-04-29T15:02:22;29.20;42.40
66608;DHT22;53462;39.616;8.824;2023-04-29T15:04:48;29.10;42.20
66608;DHT22;53462;39.616;8.824;2023-04-29T15:07:14;29.30;42.40
66608;DHT22;53462;39.616;8.824;2023-04-29T15:09:41;29.50;41.80
66608;DHT22;53462;39.616;8.824;2023-04-29T15:12:07;29.30;41.80
66608;DHT22;53462;39.616;8.824;2023-04-29T15:14:34;29.10;42.30
66608;DHT22;53462;39.616;8.824;2023-04-29T15:17:00;28.80;43.20
66608;DHT22;53462;39.616;8.824;2023-04-29T15:19:26;28.60;42.90
66608;DHT22;53462;39.616;8.824;2023-04-29T15:21:52;28.60;43.60
66608;DHT22;53462;39.616;8.824;2023-04-29T15:24:18;28.80;42.80
66608;DHT22;53462;39.616;8.824;2023-04-29T15:26:44;28.70;43.20
66608;DHT22;53462;39.616;8.824;2023-04-29T15:29:11;28.70;42.10
66608;DHT22;53462;39.616;8.824;2023-04-29T15:31:37;28.60;42.80
66608;DHT22;53462;39.616;8.824;2023-04-29T15:34:03;28.60;43.00
66608;DHT22;53462;39.616;8.824;2023-04-29T15:36:30;28.50;42.80
66608;DHT22;53462;39.616;8.824;2023-04-29T15:38:58;28.40;42.90
66608;DHT22;53462;39.616;8.824;2023-04-29T15:41:24;28.40;42.10
66608;DHT22;53462;39.616;8.824;2023-04-29T15:43:51;28.20;42.40
66608;DHT22;53462;39.616;8.824;2023-04-29T15:46:17;28.20;43.70
66608;DHT22;53462;39.616;8.824;2023-04-29T15:48:44;28.30;43.40
66608;DHT22;53462;39.616;8.824;2023-04-29T15:51:10;28.00;43.40
66608;DHT22;53462;39.616;8.824;2023-04-29T15:53:40;27.70;44.30
66608;DHT22;53462;39.616;8.824;2023-04-29T15:56:06;27.70;44.60
66608;DHT22;53462;39.616;8.824;2023-04-29T15:58:32;27.60;44.60
66608;DHT22;53462;39.616;8.824;2023-04-29T16:00:58;27.40;45.10
66608;DHT22;53462;39.616;8.824;2023-04-29T16:03:23;27.20;45.30